createdAt,value
2022-11-28T00:00:21.796Z,89.54
2022-11-28T00:03:19.360Z,89.51
2022-11-28T00:06:17.067Z,89.40
2022-11-28T00:09:14.747Z,89.55
2022-11-28T00:12:12.228Z,89.66
2022-11-28T00:15:09.681Z,89.69
2022-11-28T00:18:07.132Z,89.77
2022-11-28T00:21:04.617Z,89.41
2022-11-28T00:24:02.087Z,89.37
2022-11-28T00:26:59.576Z,89.53
2022-11-28T00:29:57.057Z,89.57
2022-11-28T00:32:54.530Z,89.40
2022-11-28T00:35:52.332Z,89.09
2022-11-28T00:38:49.768Z,88.75
2022-11-28T00:41:47.229Z,88.60
2022-11-28T00:44:44.825Z,88.62
2022-11-28T00:47:42.594Z,88.76
2022-11-28T00:50:40.031Z,88.78
2022-11-28T00:53:37.507Z,88.70
2022-11-28T00:56:34.997Z,88.50
2022-11-28T00:59:32.424Z,88.28
2022-11-28T01:02:29.945Z,88.58
2022-11-28T01:05:27.384Z,88.68
2022-11-28T01:08:24.836Z,88.64
2022-11-28T01:11:22.286Z,88.59
2022-11-28T01:14:19.745Z,88.46
2022-11-28T01:17:17.200Z,88.53
2022-11-28T01:20:14.663Z,88.48
2022-11-28T01:23:12.116Z,88.74
2022-11-28T01:26:09.599Z,89.01
2022-11-28T01:29:07.089Z,89.02
2022-11-28T01:32:04.544Z,88.91
2022-11-28T01:35:02.043Z,88.88
2022-11-28T01:37:59.504Z,88.83
2022-11-28T01:40:56.965Z,88.90
2022-11-28T01:43:54.419Z,88.68
2022-11-28T01:46:51.967Z,88.60
2022-11-28T01:49:49.528Z,88.51
2022-11-28T01:52:47.021Z,88.45
2022-11-28T01:55:44.508Z,88.61
2022-11-28T01:58:41.958Z,88.90
2022-11-28T02:01:39.486Z,88.94
2022-11-28T02:04:37.003Z,88.98
2022-11-28T02:07:34.687Z,89.14
2022-11-28T02:10:32.222Z,89.20
2022-11-28T02:13:29.691Z,89.41
2022-11-28T02:16:27.218Z,89.54
2022-11-28T02:19:24.725Z,89.40
2022-11-28T02:22:22.225Z,89.33
2022-11-28T02:25:19.686Z,89.34
2022-11-28T02:28:17.174Z,89.49
2022-11-28T02:31:14.680Z,89.55
2022-11-28T02:34:12.177Z,89.62
2022-11-28T02:37:09.630Z,89.66
2022-11-28T02:40:07.093Z,89.67
2022-11-28T02:43:04.580Z,89.69
2022-11-28T02:46:02.087Z,89.59
2022-11-28T02:48:59.547Z,89.44
2022-11-28T02:51:56.984Z,89.33
2022-11-28T02:54:54.429Z,89.24
2022-11-28T02:57:51.855Z,89.31
2022-11-28T03:00:49.362Z,89.31
2022-11-28T03:03:47.216Z,89.22
2022-11-28T03:06:44.674Z,89.29
2022-11-28T03:09:42.142Z,89.47
2022-11-28T03:12:39.574Z,89.66
2022-11-28T03:15:37.018Z,89.69
2022-11-28T03:18:34.463Z,89.72
2022-11-28T03:21:31.922Z,89.72
2022-11-28T03:24:29.383Z,89.75
2022-11-28T03:27:26.850Z,89.78
2022-11-28T03:30:24.361Z,89.73
2022-11-28T03:33:22.344Z,89.57
2022-11-28T03:36:19.835Z,89.59
2022-11-28T03:39:17.311Z,89.58
2022-11-28T03:42:14.796Z,89.35
2022-11-28T03:45:12.272Z,89.28
2022-11-28T03:48:09.773Z,89.25
2022-11-28T03:51:07.219Z,89.38
2022-11-28T03:54:04.749Z,89.20
2022-11-28T03:57:02.208Z,89.10
2022-11-28T03:59:59.639Z,89.11
2022-11-28T04:02:57.201Z,89.08
2022-11-28T04:05:54.816Z,88.92
2022-11-28T04:08:52.292Z,88.92
2022-11-28T04:11:49.765Z,88.60
2022-11-28T04:14:47.234Z,88.43
2022-11-28T04:17:44.707Z,88.37
2022-11-28T04:20:42.191Z,88.45
2022-11-28T04:23:39.668Z,88.37
2022-11-28T04:26:37.148Z,88.30
2022-11-28T04:29:34.592Z,88.51
2022-11-28T04:32:32.073Z,88.45
2022-11-28T04:35:29.535Z,88.45
2022-11-28T04:38:26.993Z,88.52
2022-11-28T04:41:24.458Z,88.45
2022-11-28T04:44:22.331Z,88.42
2022-11-28T04:47:19.801Z,88.47
2022-11-28T04:50:17.259Z,88.36
2022-11-28T04:53:14.728Z,88.14
2022-11-28T04:56:12.217Z,87.96
2022-11-28T04:59:09.693Z,88.03
2022-11-28T05:02:07.239Z,88.05
2022-11-28T05:05:04.747Z,88.03
2022-11-28T05:08:02.327Z,87.97
2022-11-28T05:10:59.861Z,87.78
2022-11-28T05:13:57.341Z,87.83
2022-11-28T05:16:54.946Z,87.71
2022-11-28T05:19:52.426Z,87.47
2022-11-28T05:22:49.876Z,87.60
2022-11-28T05:25:47.355Z,87.61
2022-11-28T05:28:44.833Z,87.58
2022-11-28T05:31:42.389Z,87.67
2022-11-28T05:34:40.079Z,87.66
2022-11-28T05:37:37.687Z,87.53
2022-11-28T05:40:35.155Z,87.60
2022-11-28T05:43:32.640Z,87.62
2022-11-28T05:46:30.087Z,87.53
2022-11-28T05:49:28.991Z,87.31
2022-11-28T05:52:26.445Z,87.25
2022-11-28T05:55:23.917Z,87.09
2022-11-28T05:58:21.385Z,87.22
2022-11-28T06:01:18.839Z,87.20
2022-11-28T06:04:16.352Z,87.10
2022-11-28T06:07:13.937Z,87.09
2022-11-28T06:10:11.469Z,87.09
2022-11-28T06:13:08.948Z,87.16
2022-11-28T06:16:06.492Z,87.13
2022-11-28T06:19:03.986Z,87.11
2022-11-28T06:22:01.843Z,87.08
2022-11-28T06:24:59.321Z,87.13
2022-11-28T06:27:56.771Z,87.04
2022-11-28T06:30:54.227Z,87.05
2022-11-28T06:33:51.704Z,86.95
2022-11-28T06:36:49.180Z,87.00
2022-11-28T06:39:46.649Z,87.01
2022-11-28T06:42:44.096Z,86.88
2022-11-28T06:45:41.620Z,86.91
2022-11-28T06:48:39.527Z,86.88
2022-11-28T06:51:37.020Z,86.80
2022-11-28T06:54:34.468Z,86.82
2022-11-28T06:57:32.835Z,86.81
2022-11-28T07:00:30.319Z,86.77
2022-11-28T07:03:27.794Z,86.72
2022-11-28T07:06:25.315Z,86.56
2022-11-28T07:09:22.802Z,86.45
2022-11-28T07:12:20.989Z,86.38
2022-11-28T07:15:18.416Z,86.35
2022-11-28T07:18:15.895Z,86.30
2022-11-28T07:21:14.741Z,86.08
2022-11-28T07:24:12.253Z,86.01
2022-11-28T07:27:09.736Z,85.96
2022-11-28T07:30:07.193Z,85.89
2022-11-28T07:33:04.759Z,85.87
2022-11-28T07:36:02.407Z,85.92
2022-11-28T07:38:59.908Z,85.93
2022-11-28T07:41:57.396Z,85.93
2022-11-28T07:44:54.843Z,85.97
2022-11-28T07:47:52.340Z,85.93
2022-11-28T07:50:50.569Z,85.86
2022-11-28T07:53:48.048Z,85.76
2022-11-28T07:57:11.514Z,85.57
2022-11-28T08:00:03.522Z,85.41
2022-11-28T08:03:00.979Z,85.28
2022-11-28T08:06:01.534Z,85.03
2022-11-28T08:09:00.487Z,84.89
2022-11-28T08:11:57.972Z,84.74
2022-11-28T08:14:55.432Z,84.33
2022-11-28T08:17:52.914Z,84.03
2022-11-28T08:20:50.503Z,83.67
2022-11-28T08:23:47.973Z,83.53
2022-11-28T08:26:45.408Z,83.23
2022-11-28T08:29:43.221Z,82.98
2022-11-28T08:32:40.880Z,82.89
2022-11-28T08:35:38.321Z,82.40
2022-11-28T08:38:35.819Z,82.32
2022-11-28T08:41:33.259Z,81.98
2022-11-28T08:44:30.895Z,81.77
2022-11-28T08:47:28.355Z,81.79
2022-11-28T08:50:25.849Z,81.54
2022-11-28T08:53:23.333Z,81.06
2022-11-28T08:56:20.805Z,80.77
2022-11-28T08:59:18.267Z,80.37
2022-11-28T09:02:15.744Z,80.16
2022-11-28T09:05:13.204Z,80.25
2022-11-28T09:08:12.082Z,79.76
2022-11-28T09:11:09.782Z,79.45
2022-11-28T09:14:07.613Z,79.01
2022-11-28T09:17:05.753Z,78.23
2022-11-28T09:20:03.791Z,78.14
2022-11-28T09:23:01.368Z,77.54
2022-11-28T09:25:58.841Z,76.71
2022-11-28T09:28:56.314Z,76.71
2022-11-28T09:31:53.776Z,75.93
2022-11-28T09:34:51.722Z,76.24
2022-11-28T09:37:49.191Z,76.30
2022-11-28T09:40:46.635Z,75.52
2022-11-28T09:43:44.115Z,75.55
2022-11-28T09:46:41.796Z,75.11
2022-11-28T09:49:40.997Z,74.83
2022-11-28T09:52:43.149Z,74.42
2022-11-28T09:55:40.635Z,74.49
2022-11-28T09:58:38.112Z,73.52
2022-11-28T10:01:35.548Z,73.17
2022-11-28T10:04:33.078Z,72.84
2022-11-28T10:07:30.675Z,73.31
2022-11-28T10:10:28.165Z,72.88
2022-11-28T10:13:32.657Z,72.75
2022-11-28T10:16:38.816Z,72.57
2022-11-28T10:19:53.950Z,71.82
2022-11-28T10:22:52.853Z,71.86
2022-11-28T10:25:50.358Z,71.93
2022-11-28T10:28:47.823Z,71.44
2022-11-28T10:31:45.295Z,70.62
2022-11-28T10:34:42.964Z,70.71
2022-11-28T10:37:40.420Z,70.56
2022-11-28T10:40:37.859Z,70.65
2022-11-28T10:43:35.345Z,70.44
2022-11-28T10:46:32.945Z,70.35
2022-11-28T10:49:30.904Z,69.80
2022-11-28T10:52:28.339Z,69.92
2022-11-28T10:55:25.795Z,69.55
2022-11-28T10:58:23.256Z,69.61
2022-11-28T11:01:20.749Z,69.18
2022-11-28T11:04:18.331Z,68.70
2022-11-28T11:07:20.228Z,68.45
2022-11-28T11:10:20.531Z,68.67
2022-11-28T11:13:19.291Z,68.46
2022-11-28T11:16:16.792Z,67.50
2022-11-28T11:19:14.264Z,67.58
2022-11-28T11:22:11.732Z,67.38
2022-11-28T11:25:09.185Z,67.10
2022-11-28T11:28:06.639Z,67.21
2022-11-28T11:31:04.136Z,66.94
2022-11-28T11:34:01.660Z,67.10
2022-11-28T11:36:59.138Z,66.69
2022-11-28T11:39:56.602Z,67.01
2022-11-28T11:42:54.060Z,67.26
2022-11-28T11:45:52.685Z,67.02
2022-11-28T11:48:50.337Z,67.13
2022-11-28T11:51:47.816Z,67.31
2022-11-28T11:54:45.285Z,67.47
2022-11-28T11:57:42.768Z,67.43
2022-11-28T12:00:40.349Z,67.46
2022-11-28T12:03:38.428Z,67.54
2022-11-28T12:06:35.910Z,67.69
2022-11-28T12:09:33.433Z,67.95
2022-11-28T12:12:30.922Z,68.23
2022-11-28T12:15:28.391Z,68.19
2022-11-28T12:18:25.889Z,68.36
2022-11-28T12:21:23.324Z,68.15
2022-11-28T12:24:20.764Z,68.61
2022-11-28T12:27:18.211Z,68.55
2022-11-28T12:30:15.668Z,68.86
2022-11-28T12:33:13.414Z,68.98
2022-11-28T12:36:10.878Z,69.07
2022-11-28T12:39:08.339Z,69.12
2022-11-28T12:42:06.496Z,69.08
2022-11-28T12:45:04.084Z,69.43
2022-11-28T12:48:01.800Z,69.73
2022-11-28T12:50:59.259Z,70.20
2022-11-28T12:53:56.768Z,70.61
2022-11-28T12:56:54.243Z,71.10
2022-11-28T12:59:51.749Z,71.36
2022-11-28T13:02:49.386Z,71.62
2022-11-28T13:05:46.892Z,71.93
2022-11-28T13:08:48.376Z,72.09
2022-11-28T13:11:46.675Z,72.11
2022-11-28T13:14:44.596Z,72.45
2022-11-28T13:17:42.347Z,72.62
2022-11-28T13:20:42.247Z,72.94
2022-11-28T13:23:39.728Z,73.12
2022-11-28T13:26:37.407Z,73.41
2022-11-28T13:29:34.914Z,73.56
2022-11-28T13:32:32.382Z,73.59
2022-11-28T13:35:29.847Z,74.10
2022-11-28T13:38:36.188Z,74.16
2022-11-28T13:42:06.324Z,74.22
2022-11-28T13:44:52.354Z,74.47
2022-11-28T13:47:49.772Z,74.70
2022-11-28T13:50:47.227Z,75.08
2022-11-28T13:53:44.709Z,75.12
2022-11-28T13:56:42.204Z,75.29
2022-11-28T13:59:39.694Z,75.35
2022-11-28T14:02:37.314Z,75.59
2022-11-28T14:05:34.862Z,75.66
2022-11-28T14:08:32.338Z,75.85
2022-11-28T14:11:29.808Z,76.09
2022-11-28T14:14:27.307Z,76.05
2022-11-28T14:17:24.798Z,76.24
2022-11-28T14:20:23.012Z,76.18
2022-11-28T14:23:20.488Z,76.38
2022-11-28T14:26:17.958Z,76.68
2022-11-28T14:29:15.445Z,76.71
2022-11-28T14:32:29.781Z,76.77
2022-11-28T14:35:28.401Z,76.99
2022-11-28T14:38:25.865Z,77.18
2022-11-28T14:41:23.486Z,77.05
2022-11-28T14:44:21.682Z,77.17
2022-11-28T14:47:19.483Z,77.35
2022-11-28T14:50:18.237Z,77.28
2022-11-28T14:53:15.757Z,77.24
2022-11-28T14:56:13.231Z,77.44
2022-11-28T14:59:10.717Z,77.54
2022-11-28T15:02:08.230Z,77.54
2022-11-28T15:05:05.697Z,77.66
2022-11-28T15:08:03.169Z,77.77
2022-11-28T15:11:00.651Z,77.87
2022-11-28T15:13:58.119Z,77.88
2022-11-28T15:16:55.592Z,77.92
2022-11-28T15:19:53.144Z,77.98
2022-11-28T15:22:50.593Z,78.08
2022-11-28T15:25:48.072Z,78.05
2022-11-28T15:28:45.542Z,78.10
2022-11-28T15:31:43.041Z,78.09
2022-11-28T15:34:40.823Z,78.14
2022-11-28T15:37:38.501Z,78.31
2022-11-28T15:40:35.966Z,78.39
2022-11-28T15:43:33.433Z,78.47
2022-11-28T15:46:31.049Z,78.44
2022-11-28T15:49:29.370Z,78.60
2022-11-28T15:52:26.867Z,78.41
2022-11-28T15:55:24.343Z,78.51
2022-11-28T15:58:22.260Z,78.42
2022-11-28T16:01:19.896Z,78.52
2022-11-28T16:04:17.444Z,78.65
2022-11-28T16:07:14.969Z,78.70
2022-11-28T16:10:12.590Z,78.83
2022-11-28T16:13:10.098Z,78.82
2022-11-28T16:16:07.585Z,78.90
2022-11-28T16:19:05.089Z,79.02
2022-11-28T16:22:02.566Z,78.95
2022-11-28T16:25:01.004Z,79.11
2022-11-28T16:27:58.504Z,79.06
2022-11-28T16:30:56.521Z,79.24
2022-11-28T16:33:55.728Z,79.47
2022-11-28T16:36:55.224Z,79.39
2022-11-28T16:39:53.302Z,79.54
2022-11-28T16:42:50.891Z,79.60
2022-11-28T16:45:49.143Z,79.67
2022-11-28T16:48:47.238Z,79.83
2022-11-28T16:51:45.085Z,79.84
2022-11-28T16:54:47.030Z,79.76
2022-11-28T16:57:44.564Z,79.68
2022-11-28T17:00:43.008Z,79.69
2022-11-28T17:03:42.263Z,79.83
2022-11-28T17:06:39.741Z,80.05
2022-11-28T17:09:37.680Z,80.04
2022-11-28T17:12:37.647Z,80.10
2022-11-28T17:15:37.252Z,80.06
2022-11-28T17:18:35.666Z,80.17
2022-11-28T17:21:33.870Z,80.14
2022-11-28T17:24:31.409Z,80.20
2022-11-28T17:27:29.323Z,80.38
2022-11-28T17:30:29.587Z,80.19
2022-11-28T17:33:27.642Z,80.06
2022-11-28T17:36:26.092Z,80.12
2022-11-28T17:39:24.157Z,80.27
2022-11-28T17:42:22.512Z,80.19
2022-11-28T17:45:20.524Z,80.14
2022-11-28T17:48:21.641Z,80.24
2022-11-28T17:51:20.519Z,80.38
2022-11-28T17:54:19.153Z,80.36
2022-11-28T17:57:17.145Z,80.47
2022-11-28T18:00:16.104Z,80.31
2022-11-28T18:03:14.409Z,80.14
2022-11-28T18:06:12.976Z,80.18
2022-11-28T18:09:12.427Z,80.02
2022-11-28T18:12:11.206Z,80.15
2022-11-28T18:15:10.469Z,80.19
2022-11-28T18:18:10.036Z,80.22
2022-11-28T18:21:09.411Z,80.20
2022-11-28T18:24:07.673Z,80.16
2022-11-28T18:27:06.299Z,80.20
2022-11-28T18:30:04.765Z,80.24
2022-11-28T18:33:02.818Z,80.16
2022-11-28T18:36:02.655Z,80.18
2022-11-28T18:39:01.155Z,80.25
2022-11-28T18:42:00.684Z,80.26
2022-11-28T18:44:59.447Z,80.18
2022-11-28T18:48:00.199Z,80.04
2022-11-28T18:50:59.801Z,80.05
2022-11-28T18:53:58.691Z,80.02
2022-11-28T18:56:57.091Z,79.97
2022-11-28T18:59:58.895Z,79.93
2022-11-28T19:03:00.660Z,79.94
2022-11-28T19:05:58.875Z,79.94
2022-11-28T19:08:57.192Z,79.90
2022-11-28T19:11:56.457Z,79.86
2022-11-28T19:15:00.266Z,79.80
2022-11-28T19:18:00.506Z,79.73
2022-11-28T19:20:58.634Z,79.69
2022-11-28T19:23:57.534Z,79.61
2022-11-28T19:26:56.632Z,79.55
2022-11-28T19:29:56.471Z,79.55
2022-11-28T19:32:55.239Z,79.49
2022-11-28T19:35:54.641Z,79.49
2022-11-28T19:38:53.518Z,79.49
2022-11-28T19:41:51.759Z,79.56
2022-11-28T19:44:51.425Z,79.53
2022-11-28T19:47:50.240Z,79.54
2022-11-28T19:50:48.253Z,79.50
2022-11-28T19:53:46.960Z,79.47
2022-11-28T19:56:46.562Z,79.52
2022-11-28T19:59:46.129Z,79.49
2022-11-28T20:02:44.816Z,79.43
2022-11-28T20:05:43.470Z,79.42
2022-11-28T20:08:42.361Z,79.44
2022-11-28T20:11:54.294Z,79.45
2022-11-28T20:14:54.386Z,79.38
2022-11-28T20:17:53.568Z,79.36
2022-11-28T20:20:52.113Z,79.33
2022-11-28T20:23:50.907Z,79.21
2022-11-28T20:26:51.219Z,79.20
2022-11-28T20:29:48.752Z,79.16
2022-11-28T20:32:46.788Z,79.14
2022-11-28T20:35:44.786Z,79.11
2022-11-28T20:38:44.129Z,79.15
2022-11-28T20:41:44.055Z,79.16
2022-11-28T20:44:46.987Z,79.15
2022-11-28T20:47:49.824Z,79.19
2022-11-28T20:50:49.189Z,79.25
2022-11-28T20:53:47.494Z,79.31
2022-11-28T20:57:19.025Z,79.37
2022-11-28T21:00:04.181Z,79.48
2022-11-28T21:03:02.909Z,79.47
2022-11-28T21:06:01.482Z,79.59
2022-11-28T21:08:59.496Z,79.68
2022-11-28T21:11:59.388Z,79.77
2022-11-28T21:14:57.243Z,79.86
2022-11-28T21:17:58.399Z,79.85
2022-11-28T21:20:56.475Z,79.93
2022-11-28T21:23:54.544Z,80.20
2022-11-28T21:26:54.456Z,80.30
2022-11-28T21:29:53.343Z,80.25
2022-11-28T21:32:51.203Z,80.31
2022-11-28T21:35:48.717Z,80.27
2022-11-28T21:38:46.224Z,80.29
2022-11-28T21:41:43.721Z,80.28
2022-11-28T21:44:41.221Z,80.18
2022-11-28T21:47:38.669Z,80.18
2022-11-28T21:50:36.125Z,80.08
2022-11-28T21:53:33.616Z,80.04
2022-11-28T21:56:31.081Z,80.00
2022-11-28T21:59:28.598Z,80.00
2022-11-28T22:02:30.529Z,79.97
2022-11-28T22:05:28.543Z,79.90
2022-11-28T22:08:25.989Z,79.78
2022-11-28T22:11:24.254Z,79.82
2022-11-28T22:14:21.721Z,79.87
2022-11-28T22:17:19.219Z,79.86
2022-11-28T22:20:16.700Z,79.79
2022-11-28T22:23:14.337Z,79.81
2022-11-28T22:26:11.815Z,79.82
2022-11-28T22:29:09.269Z,79.83
2022-11-28T22:32:06.816Z,79.77
2022-11-28T22:35:04.280Z,79.97
2022-11-28T22:38:01.742Z,79.92
2022-11-28T22:40:59.193Z,79.95
2022-11-28T22:43:56.730Z,79.88
2022-11-28T22:46:54.238Z,79.99
2022-11-28T22:49:51.704Z,79.92
2022-11-28T22:52:49.140Z,80.00
2022-11-28T22:55:46.615Z,79.96
2022-11-28T22:58:44.077Z,79.90
2022-11-28T23:01:41.616Z,79.89
2022-11-28T23:04:39.158Z,79.93
2022-11-28T23:07:36.676Z,79.83
2022-11-28T23:10:34.170Z,79.85
2022-11-28T23:13:31.625Z,79.90
2022-11-28T23:16:29.158Z,80.02
2022-11-28T23:19:26.637Z,80.04
2022-11-28T23:22:24.095Z,80.08
2022-11-28T23:25:21.586Z,80.27
2022-11-28T23:28:19.033Z,80.39
2022-11-28T23:31:16.569Z,80.40
2022-11-28T23:34:14.120Z,80.51
2022-11-28T23:37:11.570Z,80.49
2022-11-28T23:40:09.058Z,80.54
2022-11-28T23:43:06.519Z,80.52
2022-11-28T23:46:04.034Z,80.62
2022-11-28T23:49:01.499Z,80.76
2022-11-28T23:51:58.995Z,80.77
2022-11-28T23:54:56.452Z,80.75
2022-11-28T23:57:53.908Z,80.73
